sensor_id;sensor_type;location;lat;lon;timestamp;P1;durP1;ratioP1;P2;durP2;ratioP2
51030;SDS011;37058;41.442;23.240;2022-07-29T00:00:09;13.35;;;10.65;;
51030;SDS011;37058;41.442;23.240;2022-07-29T00:02:36;12.40;;;10.90;;
51030;SDS011;37058;41.442;23.240;2022-07-29T00:05:03;12.98;;;10.23;;
51030;SDS011;37058;41.442;23.240;2022-07-29T00:07:30;12.70;;;10.75;;
51030;SDS011;37058;41.442;23.240;2022-07-29T00:09:56;13.23;;;11.25;;
51030;SDS011;37058;41.442;23.240;2022-07-29T00:12:23;13.45;;;10.70;;
51030;SDS011;37058;41.442;23.240;2022-07-29T00:14:50;13.18;;;10.55;;
51030;SDS011;37058;41.442;23.240;2022-07-29T00:17:16;12.77;;;10.75;;
51030;SDS011;37058;41.442;23.240;2022-07-29T00:19:42;11.90;;;10.75;;
51030;SDS011;37058;41.442;23.240;2022-07-29T00:22:08;12.13;;;10.82;;
51030;SDS011;37058;41.442;23.240;2022-07-29T00:24:34;12.40;;;11.13;;
51030;SDS011;37058;41.442;23.240;2022-07-29T00:27:00;11.52;;;10.35;;
51030;SDS011;37058;41.442;23.240;2022-07-29T00:29:26;11.65;;;10.13;;
51030;SDS011;37058;41.442;23.240;2022-07-29T00:31:51;13.02;;;10.85;;
51030;SDS011;37058;41.442;23.240;2022-07-29T00:34:17;11.82;;;10.35;;
51030;SDS011;37058;41.442;23.240;2022-07-29T00:37:02;11.20;;;9.02;;
51030;SDS011;37058;41.442;23.240;2022-07-29T00:39:28;11.50;;;9.80;;
51030;SDS011;37058;41.442;23.240;2022-07-29T00:41:54;13.98;;;10.27;;
51030;SDS011;37058;41.442;23.240;2022-07-29T00:44:20;13.82;;;10.00;;
51030;SDS011;37058;41.442;23.240;2022-07-29T00:46:46;12.63;;;9.43;;
51030;SDS011;37058;41.442;23.240;2022-07-29T00:49:12;10.82;;;9.77;;
51030;SDS011;37058;41.442;23.240;2022-07-29T00:51:38;10.10;;;9.05;;
51030;SDS011;37058;41.442;23.240;2022-07-29T00:54:04;12.30;;;9.57;;
51030;SDS011;37058;41.442;23.240;2022-07-29T00:56:31;11.18;;;9.77;;
51030;SDS011;37058;41.442;23.240;2022-07-29T00:58:58;11.00;;;9.88;;
51030;SDS011;37058;41.442;23.240;2022-07-29T01:01:25;13.18;;;9.52;;
51030;SDS011;37058;41.442;23.240;2022-07-29T01:03:51;11.77;;;10.10;;
51030;SDS011;37058;41.442;23.240;2022-07-29T01:06:18;11.70;;;10.50;;
51030;SDS011;37058;41.442;23.240;2022-07-29T01:08:45;12.43;;;10.38;;
51030;SDS011;37058;41.442;23.240;2022-07-29T01:11:12;13.40;;;10.00;;
51030;SDS011;37058;41.442;23.240;2022-07-29T01:13:41;11.85;;;10.25;;
51030;SDS011;37058;41.442;23.240;2022-07-29T01:16:18;14.10;;;10.55;;
51030;SDS011;37058;41.442;23.240;2022-07-29T01:18:51;10.43;;;9.43;;
51030;SDS011;37058;41.442;23.240;2022-07-29T01:21:46;16.15;;;10.18;;
51030;SDS011;37058;41.442;23.240;2022-07-29T01:30:11;17.13;;;10.05;;
51030;SDS011;37058;41.442;23.240;2022-07-29T01:32:38;11.48;;;9.35;;
51030;SDS011;37058;41.442;23.240;2022-07-29T01:35:06;11.27;;;9.38;;
51030;SDS011;37058;41.442;23.240;2022-07-29T01:38:04;11.23;;;9.30;;
51030;SDS011;37058;41.442;23.240;2022-07-29T01:40:41;11.35;;;9.93;;
51030;SDS011;37058;41.442;23.240;2022-07-29T01:43:17;11.05;;;9.85;;
51030;SDS011;37058;41.442;23.240;2022-07-29T01:45:56;12.10;;;10.18;;
51030;SDS011;37058;41.442;23.240;2022-07-29T01:51:14;11.57;;;10.40;;
51030;SDS011;37058;41.442;23.240;2022-07-29T01:56:38;10.98;;;9.75;;
51030;SDS011;37058;41.442;23.240;2022-07-29T01:59:07;14.05;;;9.82;;
51030;SDS011;37058;41.442;23.240;2022-07-29T02:01:35;11.35;;;10.13;;
51030;SDS011;37058;41.442;23.240;2022-07-29T02:04:02;11.65;;;10.40;;
51030;SDS011;37058;41.442;23.240;2022-07-29T02:06:32;12.23;;;10.95;;
51030;SDS011;37058;41.442;23.240;2022-07-29T02:09:01;11.18;;;10.07;;
51030;SDS011;37058;41.442;23.240;2022-07-29T02:11:30;14.90;;;9.65;;
51030;SDS011;37058;41.442;23.240;2022-07-29T02:13:58;10.38;;;9.38;;
51030;SDS011;37058;41.442;23.240;2022-07-29T02:16:26;13.25;;;10.13;;
51030;SDS011;37058;41.442;23.240;2022-07-29T02:18:56;11.50;;;9.88;;
51030;SDS011;37058;41.442;23.240;2022-07-29T02:21:25;12.50;;;10.75;;
51030;SDS011;37058;41.442;23.240;2022-07-29T02:23:53;13.95;;;9.75;;
51030;SDS011;37058;41.442;23.240;2022-07-29T02:26:24;11.73;;;9.00;;
51030;SDS011;37058;41.442;23.240;2022-07-29T02:28:54;11.30;;;9.10;;
51030;SDS011;37058;41.442;23.240;2022-07-29T02:31:24;12.90;;;8.82;;
51030;SDS011;37058;41.442;23.240;2022-07-29T02:33:55;12.45;;;9.00;;
51030;SDS011;37058;41.442;23.240;2022-07-29T02:36:22;14.88;;;8.32;;
51030;SDS011;37058;41.442;23.240;2022-07-29T02:38:50;10.75;;;9.35;;
51030;SDS011;37058;41.442;23.240;2022-07-29T02:41:41;10.23;;;8.73;;
51030;SDS011;37058;41.442;23.240;2022-07-29T02:44:10;11.43;;;9.57;;
51030;SDS011;37058;41.442;23.240;2022-07-29T02:49:40;12.20;;;9.80;;
51030;SDS011;37058;41.442;23.240;2022-07-29T02:52:18;11.85;;;9.43;;
51030;SDS011;37058;41.442;23.240;2022-07-29T02:54:58;10.70;;;9.10;;
51030;SDS011;37058;41.442;23.240;2022-07-29T02:57:41;11.38;;;9.30;;
51030;SDS011;37058;41.442;23.240;2022-07-29T03:00:14;9.55;;;8.55;;
51030;SDS011;37058;41.442;23.240;2022-07-29T03:02:43;14.93;;;10.05;;
51030;SDS011;37058;41.442;23.240;2022-07-29T03:05:15;10.77;;;9.32;;
51030;SDS011;37058;41.442;23.240;2022-07-29T03:07:45;14.13;;;9.70;;
51030;SDS011;37058;41.442;23.240;2022-07-29T03:10:17;12.77;;;10.52;;
51030;SDS011;37058;41.442;23.240;2022-07-29T03:12:44;13.95;;;10.10;;
51030;SDS011;37058;41.442;23.240;2022-07-29T03:15:10;11.73;;;10.07;;
51030;SDS011;37058;41.442;23.240;2022-07-29T03:17:37;11.65;;;9.50;;
51030;SDS011;37058;41.442;23.240;2022-07-29T03:20:04;14.70;;;9.40;;
51030;SDS011;37058;41.442;23.240;2022-07-29T03:22:32;9.40;;;8.35;;
51030;SDS011;37058;41.442;23.240;2022-07-29T03:25:10;10.95;;;8.50;;
51030;SDS011;37058;41.442;23.240;2022-07-29T03:27:37;10.73;;;8.52;;
51030;SDS011;37058;41.442;23.240;2022-07-29T03:30:04;12.73;;;9.07;;
51030;SDS011;37058;41.442;23.240;2022-07-29T03:32:31;8.75;;;7.88;;
51030;SDS011;37058;41.442;23.240;2022-07-29T03:34:57;10.00;;;8.68;;
51030;SDS011;37058;41.442;23.240;2022-07-29T03:37:23;10.20;;;7.95;;
51030;SDS011;37058;41.442;23.240;2022-07-29T03:39:49;10.57;;;9.20;;
51030;SDS011;37058;41.442;23.240;2022-07-29T03:42:16;12.40;;;10.05;;
51030;SDS011;37058;41.442;23.240;2022-07-29T03:44:46;14.63;;;9.68;;
51030;SDS011;37058;41.442;23.240;2022-07-29T03:47:14;10.93;;;8.80;;
51030;SDS011;37058;41.442;23.240;2022-07-29T03:49:42;11.45;;;8.20;;
51030;SDS011;37058;41.442;23.240;2022-07-29T03:52:12;14.90;;;8.60;;
51030;SDS011;37058;41.442;23.240;2022-07-29T03:54:39;17.80;;;8.77;;
51030;SDS011;37058;41.442;23.240;2022-07-29T03:57:05;12.77;;;8.70;;
51030;SDS011;37058;41.442;23.240;2022-07-29T03:59:32;9.32;;;8.02;;
51030;SDS011;37058;41.442;23.240;2022-07-29T04:01:59;11.27;;;8.73;;
51030;SDS011;37058;41.442;23.240;2022-07-29T04:04:33;18.63;;;8.70;;
51030;SDS011;37058;41.442;23.240;2022-07-29T04:07:01;11.88;;;8.50;;
51030;SDS011;37058;41.442;23.240;2022-07-29T04:09:27;14.45;;;9.05;;
51030;SDS011;37058;41.442;23.240;2022-07-29T04:11:53;14.40;;;8.80;;
51030;SDS011;37058;41.442;23.240;2022-07-29T04:14:19;16.73;;;8.90;;
51030;SDS011;37058;41.442;23.240;2022-07-29T04:16:45;10.45;;;9.38;;
51030;SDS011;37058;41.442;23.240;2022-07-29T04:19:11;11.77;;;7.97;;
51030;SDS011;37058;41.442;23.240;2022-07-29T04:21:38;14.63;;;8.13;;
51030;SDS011;37058;41.442;23.240;2022-07-29T04:24:05;10.82;;;7.55;;
51030;SDS011;37058;41.442;23.240;2022-07-29T04:26:32;14.15;;;8.40;;
51030;SDS011;37058;41.442;23.240;2022-07-29T04:28:58;11.85;;;8.55;;
51030;SDS011;37058;41.442;23.240;2022-07-29T04:31:24;9.65;;;7.65;;
51030;SDS011;37058;41.442;23.240;2022-07-29T04:33:50;14.45;;;8.80;;
51030;SDS011;37058;41.442;23.240;2022-07-29T04:36:16;11.43;;;8.82;;
51030;SDS011;37058;41.442;23.240;2022-07-29T04:38:42;12.80;;;8.48;;
51030;SDS011;37058;41.442;23.240;2022-07-29T04:41:08;10.65;;;8.30;;
51030;SDS011;37058;41.442;23.240;2022-07-29T04:43:34;11.45;;;8.77;;
51030;SDS011;37058;41.442;23.240;2022-07-29T04:46:01;11.48;;;8.60;;
51030;SDS011;37058;41.442;23.240;2022-07-29T04:48:28;14.43;;;9.35;;
51030;SDS011;37058;41.442;23.240;2022-07-29T04:50:55;13.82;;;8.85;;
51030;SDS011;37058;41.442;23.240;2022-07-29T04:53:21;9.45;;;7.75;;
51030;SDS011;37058;41.442;23.240;2022-07-29T04:55:47;15.23;;;8.52;;
51030;SDS011;37058;41.442;23.240;2022-07-29T04:58:13;13.07;;;9.15;;
51030;SDS011;37058;41.442;23.240;2022-07-29T05:00:39;10.45;;;8.90;;
51030;SDS011;37058;41.442;23.240;2022-07-29T05:03:05;17.25;;;8.68;;
51030;SDS011;37058;41.442;23.240;2022-07-29T05:05:31;13.38;;;9.07;;
51030;SDS011;37058;41.442;23.240;2022-07-29T05:07:57;12.73;;;8.90;;
51030;SDS011;37058;41.442;23.240;2022-07-29T05:10:23;12.18;;;10.05;;
51030;SDS011;37058;41.442;23.240;2022-07-29T05:12:49;11.15;;;9.85;;
51030;SDS011;37058;41.442;23.240;2022-07-29T05:15:15;18.05;;;10.23;;
51030;SDS011;37058;41.442;23.240;2022-07-29T05:17:42;12.07;;;9.40;;
51030;SDS011;37058;41.442;23.240;2022-07-29T05:20:09;12.70;;;10.05;;
51030;SDS011;37058;41.442;23.240;2022-07-29T05:22:35;14.18;;;12.18;;
51030;SDS011;37058;41.442;23.240;2022-07-29T05:25:01;19.73;;;14.02;;
51030;SDS011;37058;41.442;23.240;2022-07-29T05:27:28;18.98;;;14.65;;
51030;SDS011;37058;41.442;23.240;2022-07-29T05:29:54;20.67;;;15.10;;
51030;SDS011;37058;41.442;23.240;2022-07-29T05:32:20;15.10;;;13.15;;
51030;SDS011;37058;41.442;23.240;2022-07-29T05:34:45;14.82;;;13.10;;
51030;SDS011;37058;41.442;23.240;2022-07-29T05:37:11;16.20;;;11.93;;
51030;SDS011;37058;41.442;23.240;2022-07-29T05:39:38;14.55;;;12.10;;
51030;SDS011;37058;41.442;23.240;2022-07-29T05:42:11;18.55;;;12.05;;
51030;SDS011;37058;41.442;23.240;2022-07-29T05:44:37;12.77;;;11.38;;
51030;SDS011;37058;41.442;23.240;2022-07-29T05:47:05;15.48;;;10.27;;
51030;SDS011;37058;41.442;23.240;2022-07-29T05:49:31;12.25;;;9.75;;
51030;SDS011;37058;41.442;23.240;2022-07-29T05:51:58;9.82;;;8.77;;
51030;SDS011;37058;41.442;23.240;2022-07-29T05:54:24;21.73;;;11.10;;
51030;SDS011;37058;41.442;23.240;2022-07-29T05:56:50;13.23;;;10.55;;
51030;SDS011;37058;41.442;23.240;2022-07-29T05:59:16;12.00;;;10.32;;
51030;SDS011;37058;41.442;23.240;2022-07-29T06:01:42;12.13;;;9.32;;
51030;SDS011;37058;41.442;23.240;2022-07-29T06:04:08;11.07;;;8.32;;
51030;SDS011;37058;41.442;23.240;2022-07-29T06:06:34;9.63;;;7.97;;
51030;SDS011;37058;41.442;23.240;2022-07-29T06:09:00;9.45;;;8.55;;
51030;SDS011;37058;41.442;23.240;2022-07-29T06:11:27;11.25;;;7.78;;
51030;SDS011;37058;41.442;23.240;2022-07-29T06:13:53;13.77;;;7.72;;
51030;SDS011;37058;41.442;23.240;2022-07-29T06:16:19;9.60;;;7.18;;
51030;SDS011;37058;41.442;23.240;2022-07-29T06:18:45;7.97;;;7.18;;
51030;SDS011;37058;41.442;23.240;2022-07-29T06:21:11;8.23;;;7.35;;
51030;SDS011;37058;41.442;23.240;2022-07-29T06:23:37;10.02;;;8.02;;
51030;SDS011;37058;41.442;23.240;2022-07-29T06:26:04;9.88;;;7.40;;
51030;SDS011;37058;41.442;23.240;2022-07-29T06:28:31;10.50;;;7.03;;
51030;SDS011;37058;41.442;23.240;2022-07-29T06:30:57;10.80;;;7.85;;
51030;SDS011;37058;41.442;23.240;2022-07-29T06:33:24;10.25;;;6.97;;
51030;SDS011;37058;41.442;23.240;2022-07-29T06:35:50;8.50;;;7.28;;
51030;SDS011;37058;41.442;23.240;2022-07-29T06:38:16;8.82;;;7.10;;
51030;SDS011;37058;41.442;23.240;2022-07-29T06:40:42;9.60;;;7.85;;
51030;SDS011;37058;41.442;23.240;2022-07-29T06:43:31;8.40;;;7.60;;
51030;SDS011;37058;41.442;23.240;2022-07-29T06:46:13;9.63;;;8.40;;
51030;SDS011;37058;41.442;23.240;2022-07-29T06:48:42;10.50;;;8.90;;
51030;SDS011;37058;41.442;23.240;2022-07-29T06:51:09;12.82;;;8.82;;
51030;SDS011;37058;41.442;23.240;2022-07-29T06:53:36;10.40;;;8.65;;
51030;SDS011;37058;41.442;23.240;2022-07-29T06:56:04;10.30;;;8.60;;
51030;SDS011;37058;41.442;23.240;2022-07-29T06:58:33;13.40;;;8.63;;
51030;SDS011;37058;41.442;23.240;2022-07-29T07:01:01;15.10;;;9.65;;
51030;SDS011;37058;41.442;23.240;2022-07-29T07:03:29;12.05;;;10.05;;
51030;SDS011;37058;41.442;23.240;2022-07-29T07:05:55;16.42;;;9.40;;
51030;SDS011;37058;41.442;23.240;2022-07-29T07:08:22;11.93;;;8.73;;
51030;SDS011;37058;41.442;23.240;2022-07-29T07:10:49;11.05;;;8.95;;
51030;SDS011;37058;41.442;23.240;2022-07-29T07:13:16;12.55;;;9.63;;
51030;SDS011;37058;41.442;23.240;2022-07-29T07:15:42;13.77;;;10.13;;
51030;SDS011;37058;41.442;23.240;2022-07-29T07:18:10;16.85;;;10.75;;
51030;SDS011;37058;41.442;23.240;2022-07-29T07:20:36;12.32;;;9.75;;
51030;SDS011;37058;41.442;23.240;2022-07-29T07:23:02;14.82;;;10.25;;
51030;SDS011;37058;41.442;23.240;2022-07-29T07:25:29;14.65;;;10.50;;
51030;SDS011;37058;41.442;23.240;2022-07-29T07:27:55;11.82;;;10.20;;
51030;SDS011;37058;41.442;23.240;2022-07-29T07:30:21;15.38;;;11.00;;
51030;SDS011;37058;41.442;23.240;2022-07-29T07:32:47;14.90;;;11.18;;
51030;SDS011;37058;41.442;23.240;2022-07-29T07:35:13;18.40;;;10.73;;
51030;SDS011;37058;41.442;23.240;2022-07-29T07:37:39;18.95;;;11.70;;
51030;SDS011;37058;41.442;23.240;2022-07-29T07:40:08;14.68;;;10.57;;
51030;SDS011;37058;41.442;23.240;2022-07-29T07:42:39;14.38;;;10.43;;
51030;SDS011;37058;41.442;23.240;2022-07-29T07:45:06;13.77;;;11.38;;
51030;SDS011;37058;41.442;23.240;2022-07-29T07:47:34;16.95;;;10.90;;
51030;SDS011;37058;41.442;23.240;2022-07-29T07:50:03;13.23;;;10.70;;
51030;SDS011;37058;41.442;23.240;2022-07-29T07:52:31;16.05;;;10.20;;
51030;SDS011;37058;41.442;23.240;2022-07-29T07:54:58;11.93;;;10.15;;
51030;SDS011;37058;41.442;23.240;2022-07-29T07:57:24;17.88;;;10.13;;
51030;SDS011;37058;41.442;23.240;2022-07-29T07:59:50;12.85;;;10.73;;
51030;SDS011;37058;41.442;23.240;2022-07-29T08:02:15;17.60;;;10.07;;
51030;SDS011;37058;41.442;23.240;2022-07-29T08:04:41;14.98;;;9.98;;
51030;SDS011;37058;41.442;23.240;2022-07-29T08:07:07;12.70;;;10.27;;
51030;SDS011;37058;41.442;23.240;2022-07-29T08:09:34;13.07;;;10.13;;
51030;SDS011;37058;41.442;23.240;2022-07-29T08:12:00;14.13;;;9.98;;
51030;SDS011;37058;41.442;23.240;2022-07-29T08:14:29;17.30;;;11.80;;
51030;SDS011;37058;41.442;23.240;2022-07-29T08:16:56;15.77;;;10.23;;
51030;SDS011;37058;41.442;23.240;2022-07-29T08:19:22;14.25;;;10.02;;
51030;SDS011;37058;41.442;23.240;2022-07-29T08:21:48;14.02;;;10.25;;
51030;SDS011;37058;41.442;23.240;2022-07-29T08:24:14;15.35;;;10.98;;
51030;SDS011;37058;41.442;23.240;2022-07-29T08:26:59;18.10;;;10.25;;
51030;SDS011;37058;41.442;23.240;2022-07-29T08:29:25;14.35;;;10.05;;
51030;SDS011;37058;41.442;23.240;2022-07-29T08:31:50;12.65;;;10.05;;
51030;SDS011;37058;41.442;23.240;2022-07-29T08:34:16;22.30;;;10.90;;
51030;SDS011;37058;41.442;23.240;2022-07-29T08:36:42;17.17;;;10.80;;
51030;SDS011;37058;41.442;23.240;2022-07-29T08:39:08;16.17;;;10.30;;
51030;SDS011;37058;41.442;23.240;2022-07-29T08:41:34;15.80;;;9.52;;
51030;SDS011;37058;41.442;23.240;2022-07-29T08:44:01;13.60;;;9.98;;
51030;SDS011;37058;41.442;23.240;2022-07-29T08:46:27;18.38;;;10.52;;
51030;SDS011;37058;41.442;23.240;2022-07-29T08:48:53;13.55;;;10.02;;
51030;SDS011;37058;41.442;23.240;2022-07-29T08:51:20;12.75;;;10.00;;
51030;SDS011;37058;41.442;23.240;2022-07-29T08:53:49;18.65;;;11.32;;
51030;SDS011;37058;41.442;23.240;2022-07-29T08:56:16;13.43;;;9.75;;
51030;SDS011;37058;41.442;23.240;2022-07-29T08:58:44;21.95;;;10.13;;
51030;SDS011;37058;41.442;23.240;2022-07-29T09:01:16;25.23;;;10.35;;
51030;SDS011;37058;41.442;23.240;2022-07-29T09:03:46;15.45;;;10.25;;
51030;SDS011;37058;41.442;23.240;2022-07-29T09:06:13;14.90;;;10.18;;
51030;SDS011;37058;41.442;23.240;2022-07-29T09:08:42;12.80;;;9.82;;
51030;SDS011;37058;41.442;23.240;2022-07-29T09:11:09;14.10;;;9.23;;
51030;SDS011;37058;41.442;23.240;2022-07-29T09:13:36;19.83;;;10.20;;
51030;SDS011;37058;41.442;23.240;2022-07-29T09:16:02;12.38;;;9.43;;
51030;SDS011;37058;41.442;23.240;2022-07-29T09:21:09;15.90;;;9.23;;
51030;SDS011;37058;41.442;23.240;2022-07-29T09:23:59;9.90;;;8.57;;
51030;SDS011;37058;41.442;23.240;2022-07-29T09:26:28;9.38;;;8.38;;
51030;SDS011;37058;41.442;23.240;2022-07-29T09:28:56;11.63;;;8.32;;
51030;SDS011;37058;41.442;23.240;2022-07-29T09:31:33;10.73;;;8.00;;
51030;SDS011;37058;41.442;23.240;2022-07-29T09:34:02;13.93;;;8.05;;
51030;SDS011;37058;41.442;23.240;2022-07-29T09:36:30;8.55;;;7.65;;
51030;SDS011;37058;41.442;23.240;2022-07-29T09:38:59;11.27;;;8.02;;
51030;SDS011;37058;41.442;23.240;2022-07-29T09:41:27;24.70;;;9.15;;
51030;SDS011;37058;41.442;23.240;2022-07-29T09:43:57;12.27;;;7.60;;
51030;SDS011;37058;41.442;23.240;2022-07-29T09:46:25;8.88;;;7.43;;
51030;SDS011;37058;41.442;23.240;2022-07-29T09:49:07;11.32;;;7.82;;
51030;SDS011;37058;41.442;23.240;2022-07-29T09:51:38;12.68;;;7.57;;
51030;SDS011;37058;41.442;23.240;2022-07-29T09:54:26;10.85;;;7.22;;
51030;SDS011;37058;41.442;23.240;2022-07-29T09:56:53;10.18;;;6.95;;
51030;SDS011;37058;41.442;23.240;2022-07-29T09:59:20;18.35;;;7.40;;
51030;SDS011;37058;41.442;23.240;2022-07-29T10:01:49;13.55;;;7.30;;
51030;SDS011;37058;41.442;23.240;2022-07-29T10:04:15;8.38;;;7.38;;
51030;SDS011;37058;41.442;23.240;2022-07-29T10:06:54;7.25;;;6.10;;
51030;SDS011;37058;41.442;23.240;2022-07-29T10:09:25;13.20;;;6.63;;
51030;SDS011;37058;41.442;23.240;2022-07-29T10:14:36;7.38;;;6.13;;
51030;SDS011;37058;41.442;23.240;2022-07-29T10:17:03;8.02;;;6.43;;
51030;SDS011;37058;41.442;23.240;2022-07-29T10:19:32;7.20;;;6.40;;
51030;SDS011;37058;41.442;23.240;2022-07-29T10:22:00;7.15;;;6.20;;
51030;SDS011;37058;41.442;23.240;2022-07-29T10:24:32;9.13;;;6.53;;
51030;SDS011;37058;41.442;23.240;2022-07-29T10:27:00;12.30;;;6.20;;
51030;SDS011;37058;41.442;23.240;2022-07-29T10:29:28;8.13;;;6.35;;
51030;SDS011;37058;41.442;23.240;2022-07-29T10:32:16;9.02;;;6.07;;
51030;SDS011;37058;41.442;23.240;2022-07-29T10:44:25;6.97;;;5.25;;
51030;SDS011;37058;41.442;23.240;2022-07-29T10:46:52;7.13;;;5.40;;
51030;SDS011;37058;41.442;23.240;2022-07-29T10:49:19;7.72;;;5.75;;
51030;SDS011;37058;41.442;23.240;2022-07-29T10:52:07;6.32;;;5.35;;
51030;SDS011;37058;41.442;23.240;2022-07-29T10:54:36;7.18;;;6.05;;
51030;SDS011;37058;41.442;23.240;2022-07-29T11:10:38;10.52;;;6.40;;
51030;SDS011;37058;41.442;23.240;2022-07-29T11:13:05;8.95;;;6.55;;
51030;SDS011;37058;41.442;23.240;2022-07-29T11:18:22;10.65;;;6.60;;
51030;SDS011;37058;41.442;23.240;2022-07-29T11:20:49;7.43;;;6.07;;
51030;SDS011;37058;41.442;23.240;2022-07-29T11:23:28;7.03;;;6.13;;
51030;SDS011;37058;41.442;23.240;2022-07-29T11:37:13;8.93;;;6.88;;
51030;SDS011;37058;41.442;23.240;2022-07-29T11:40:14;6.75;;;6.15;;
51030;SDS011;37058;41.442;23.240;2022-07-29T11:45:04;7.60;;;6.80;;
51030;SDS011;37058;41.442;23.240;2022-07-29T11:47:32;7.72;;;6.93;;
51030;SDS011;37058;41.442;23.240;2022-07-29T11:50:02;8.02;;;6.80;;
51030;SDS011;37058;41.442;23.240;2022-07-29T11:52:33;6.93;;;6.00;;
51030;SDS011;37058;41.442;23.240;2022-07-29T11:55:17;7.45;;;6.65;;
51030;SDS011;37058;41.442;23.240;2022-07-29T11:57:53;10.43;;;6.47;;
51030;SDS011;37058;41.442;23.240;2022-07-29T12:00:34;11.05;;;6.05;;
51030;SDS011;37058;41.442;23.240;2022-07-29T12:05:43;10.10;;;6.60;;
51030;SDS011;37058;41.442;23.240;2022-07-29T12:08:17;8.63;;;5.88;;
51030;SDS011;37058;41.442;23.240;2022-07-29T12:10:47;7.18;;;6.47;;
51030;SDS011;37058;41.442;23.240;2022-07-29T12:13:16;8.50;;;6.10;;
51030;SDS011;37058;41.442;23.240;2022-07-29T12:15:51;7.28;;;6.50;;
51030;SDS011;37058;41.442;23.240;2022-07-29T12:18:22;6.38;;;5.78;;
51030;SDS011;37058;41.442;23.240;2022-07-29T12:20:48;6.35;;;5.75;;
51030;SDS011;37058;41.442;23.240;2022-07-29T12:23:28;7.35;;;6.43;;
51030;SDS011;37058;41.442;23.240;2022-07-29T12:25:58;8.57;;;6.22;;
51030;SDS011;37058;41.442;23.240;2022-07-29T12:28:24;6.57;;;5.97;;
51030;SDS011;37058;41.442;23.240;2022-07-29T12:30:51;12.40;;;6.55;;
51030;SDS011;37058;41.442;23.240;2022-07-29T12:33:18;8.93;;;6.70;;
51030;SDS011;37058;41.442;23.240;2022-07-29T12:35:53;8.07;;;6.88;;
51030;SDS011;37058;41.442;23.240;2022-07-29T12:38:25;9.60;;;6.25;;
51030;SDS011;37058;41.442;23.240;2022-07-29T12:40:52;12.57;;;7.00;;
51030;SDS011;37058;41.442;23.240;2022-07-29T12:43:19;6.82;;;6.20;;
51030;SDS011;37058;41.442;23.240;2022-07-29T12:45:51;6.75;;;5.97;;
51030;SDS011;37058;41.442;23.240;2022-07-29T12:48:41;6.97;;;6.03;;
51030;SDS011;37058;41.442;23.240;2022-07-29T12:51:08;7.85;;;6.32;;
51030;SDS011;37058;41.442;23.240;2022-07-29T12:53:36;6.70;;;6.05;;
51030;SDS011;37058;41.442;23.240;2022-07-29T12:56:04;8.30;;;5.97;;
51030;SDS011;37058;41.442;23.240;2022-07-29T12:58:34;7.78;;;6.20;;
51030;SDS011;37058;41.442;23.240;2022-07-29T13:11:42;6.75;;;6.05;;
51030;SDS011;37058;41.442;23.240;2022-07-29T13:14:30;6.78;;;6.10;;
51030;SDS011;37058;41.442;23.240;2022-07-29T13:19:45;6.10;;;5.50;;
51030;SDS011;37058;41.442;23.240;2022-07-29T13:22:15;6.82;;;6.18;;
51030;SDS011;37058;41.442;23.240;2022-07-29T13:24:54;7.80;;;6.30;;
51030;SDS011;37058;41.442;23.240;2022-07-29T13:27:30;6.75;;;6.15;;
51030;SDS011;37058;41.442;23.240;2022-07-29T13:29:58;9.35;;;5.93;;
51030;SDS011;37058;41.442;23.240;2022-07-29T13:32:26;6.32;;;5.72;;
51030;SDS011;37058;41.442;23.240;2022-07-29T13:34:55;8.20;;;6.22;;
51030;SDS011;37058;41.442;23.240;2022-07-29T13:37:21;7.75;;;5.75;;
51030;SDS011;37058;41.442;23.240;2022-07-29T13:39:47;7.75;;;6.05;;
51030;SDS011;37058;41.442;23.240;2022-07-29T13:42:14;8.45;;;7.45;;
51030;SDS011;37058;41.442;23.240;2022-07-29T13:44:40;7.80;;;6.10;;
51030;SDS011;37058;41.442;23.240;2022-07-29T13:47:07;6.78;;;5.85;;
51030;SDS011;37058;41.442;23.240;2022-07-29T13:49:33;7.10;;;6.40;;
51030;SDS011;37058;41.442;23.240;2022-07-29T13:51:59;6.95;;;6.25;;
51030;SDS011;37058;41.442;23.240;2022-07-29T13:54:26;7.50;;;5.70;;
51030;SDS011;37058;41.442;23.240;2022-07-29T13:56:52;10.15;;;6.05;;
51030;SDS011;37058;41.442;23.240;2022-07-29T13:59:19;8.07;;;6.47;;
51030;SDS011;37058;41.442;23.240;2022-07-29T14:01:45;10.93;;;6.38;;
51030;SDS011;37058;41.442;23.240;2022-07-29T14:04:11;8.82;;;6.30;;
51030;SDS011;37058;41.442;23.240;2022-07-29T14:06:37;7.78;;;6.20;;
51030;SDS011;37058;41.442;23.240;2022-07-29T14:09:03;7.28;;;5.75;;
51030;SDS011;37058;41.442;23.240;2022-07-29T14:11:31;5.70;;;5.20;;
51030;SDS011;37058;41.442;23.240;2022-07-29T14:13:57;7.03;;;6.30;;
51030;SDS011;37058;41.442;23.240;2022-07-29T14:16:24;6.75;;;5.50;;
51030;SDS011;37058;41.442;23.240;2022-07-29T14:18:49;10.93;;;6.65;;
51030;SDS011;37058;41.442;23.240;2022-07-29T14:21:15;12.00;;;6.70;;
51030;SDS011;37058;41.442;23.240;2022-07-29T14:23:41;9.50;;;6.10;;
51030;SDS011;37058;41.442;23.240;2022-07-29T14:26:07;6.50;;;5.80;;
51030;SDS011;37058;41.442;23.240;2022-07-29T14:28:33;7.25;;;6.30;;
51030;SDS011;37058;41.442;23.240;2022-07-29T14:30:59;5.72;;;5.22;;
51030;SDS011;37058;41.442;23.240;2022-07-29T14:33:25;6.45;;;5.78;;
51030;SDS011;37058;41.442;23.240;2022-07-29T14:35:50;8.15;;;6.10;;
51030;SDS011;37058;41.442;23.240;2022-07-29T14:38:16;6.90;;;6.25;;
51030;SDS011;37058;41.442;23.240;2022-07-29T14:40:42;10.10;;;6.80;;
51030;SDS011;37058;41.442;23.240;2022-07-29T14:43:08;10.75;;;7.00;;
51030;SDS011;37058;41.442;23.240;2022-07-29T14:45:34;7.57;;;5.95;;
51030;SDS011;37058;41.442;23.240;2022-07-29T14:48:00;7.80;;;6.05;;
51030;SDS011;37058;41.442;23.240;2022-07-29T14:50:26;7.53;;;6.38;;
51030;SDS011;37058;41.442;23.240;2022-07-29T14:52:52;9.15;;;6.28;;
51030;SDS011;37058;41.442;23.240;2022-07-29T14:55:19;7.72;;;6.93;;
51030;SDS011;37058;41.442;23.240;2022-07-29T14:57:45;8.75;;;6.25;;
51030;SDS011;37058;41.442;23.240;2022-07-29T15:00:12;6.47;;;5.88;;
51030;SDS011;37058;41.442;23.240;2022-07-29T15:02:38;10.75;;;6.35;;
51030;SDS011;37058;41.442;23.240;2022-07-29T15:05:04;8.10;;;7.30;;
51030;SDS011;37058;41.442;23.240;2022-07-29T15:07:31;17.65;;;6.65;;
51030;SDS011;37058;41.442;23.240;2022-07-29T15:09:56;23.23;;;8.65;;
51030;SDS011;37058;41.442;23.240;2022-07-29T15:12:22;10.77;;;6.53;;
51030;SDS011;37058;41.442;23.240;2022-07-29T15:14:48;13.05;;;6.38;;
51030;SDS011;37058;41.442;23.240;2022-07-29T15:17:14;14.45;;;7.10;;
51030;SDS011;37058;41.442;23.240;2022-07-29T15:19:40;16.48;;;6.85;;
51030;SDS011;37058;41.442;23.240;2022-07-29T15:22:06;10.88;;;6.80;;
51030;SDS011;37058;41.442;23.240;2022-07-29T15:24:32;25.80;;;7.22;;
51030;SDS011;37058;41.442;23.240;2022-07-29T15:26:58;28.08;;;7.53;;
51030;SDS011;37058;41.442;23.240;2022-07-29T15:29:24;15.20;;;6.93;;
51030;SDS011;37058;41.442;23.240;2022-07-29T15:31:50;13.00;;;6.75;;
51030;SDS011;37058;41.442;23.240;2022-07-29T15:34:15;10.00;;;6.05;;
51030;SDS011;37058;41.442;23.240;2022-07-29T15:36:41;10.00;;;6.20;;
51030;SDS011;37058;41.442;23.240;2022-07-29T15:39:07;10.10;;;5.80;;
51030;SDS011;37058;41.442;23.240;2022-07-29T15:41:34;11.20;;;6.10;;
51030;SDS011;37058;41.442;23.240;2022-07-29T15:44:00;16.83;;;6.72;;